sensor_id;sensor_type;location;lat;lon;timestamp;temperature;humidity
86136;DHT22;76795;51.360;4.546;2024-02-26T00:00:07;7.80;80.50
86136;DHT22;76795;51.360;4.546;2024-02-26T00:02:36;7.80;80.70
86136;DHT22;76795;51.360;4.546;2024-02-26T00:05:05;7.80;80.80
86136;DHT22;76795;51.360;4.546;2024-02-26T00:07:31;7.80;81.40
86136;DHT22;76795;51.360;4.546;2024-02-26T00:09:57;7.70;82.50
86136;DHT22;76795;51.360;4.546;2024-02-26T00:12:23;7.70;83.00
86136;DHT22;76795;51.360;4.546;2024-02-26T00:14:48;7.60;84.00
86136;DHT22;76795;51.360;4.546;2024-02-26T00:17:15;7.60;83.40
86136;DHT22;76795;51.360;4.546;2024-02-26T00:19:41;7.60;83.90
86136;DHT22;76795;51.360;4.546;2024-02-26T00:22:07;7.60;83.70
86136;DHT22;76795;51.360;4.546;2024-02-26T00:24:32;7.50;83.20
86136;DHT22;76795;51.360;4.546;2024-02-26T00:26:59;7.50;83.40
86136;DHT22;76795;51.360;4.546;2024-02-26T00:29:24;7.40;84.90
86136;DHT22;76795;51.360;4.546;2024-02-26T00:31:51;7.40;84.30
86136;DHT22;76795;51.360;4.546;2024-02-26T00:34:17;7.40;84.70
86136;DHT22;76795;51.360;4.546;2024-02-26T00:36:42;7.40;84.60
86136;DHT22;76795;51.360;4.546;2024-02-26T00:39:08;7.40;85.40
86136;DHT22;76795;51.360;4.546;2024-02-26T00:41:38;7.40;85.00
86136;DHT22;76795;51.360;4.546;2024-02-26T00:44:04;7.30;85.30
86136;DHT22;76795;51.360;4.546;2024-02-26T00:46:30;7.30;86.90
86136;DHT22;76795;51.360;4.546;2024-02-26T00:48:55;7.30;86.50
86136;DHT22;76795;51.360;4.546;2024-02-26T00:51:21;7.30;86.70
86136;DHT22;76795;51.360;4.546;2024-02-26T00:53:47;7.30;87.50
86136;DHT22;76795;51.360;4.546;2024-02-26T00:56:12;7.30;87.20
86136;DHT22;76795;51.360;4.546;2024-02-26T00:58:38;7.30;87.40
86136;DHT22;76795;51.360;4.546;2024-02-26T01:01:03;7.20;88.00
86136;DHT22;76795;51.360;4.546;2024-02-26T01:03:29;7.20;88.00
86136;DHT22;76795;51.360;4.546;2024-02-26T01:05:55;7.20;87.80
86136;DHT22;76795;51.360;4.546;2024-02-26T01:08:21;7.10;88.80
86136;DHT22;76795;51.360;4.546;2024-02-26T01:10:47;7.10;87.90
86136;DHT22;76795;51.360;4.546;2024-02-26T01:13:12;7.10;88.90
86136;DHT22;76795;51.360;4.546;2024-02-26T01:15:38;7.10;88.40
86136;DHT22;76795;51.360;4.546;2024-02-26T01:18:04;7.10;89.00
86136;DHT22;76795;51.360;4.546;2024-02-26T01:20:30;7.00;88.70
86136;DHT22;76795;51.360;4.546;2024-02-26T01:22:55;7.00;88.80
86136;DHT22;76795;51.360;4.546;2024-02-26T01:25:21;7.00;88.40
86136;DHT22;76795;51.360;4.546;2024-02-26T01:27:47;7.00;89.30
86136;DHT22;76795;51.360;4.546;2024-02-26T01:30:12;6.90;88.80
86136;DHT22;76795;51.360;4.546;2024-02-26T01:32:41;6.90;88.60
86136;DHT22;76795;51.360;4.546;2024-02-26T01:35:07;6.80;89.70
86136;DHT22;76795;51.360;4.546;2024-02-26T01:37:35;6.80;89.80
86136;DHT22;76795;51.360;4.546;2024-02-26T01:40:01;6.80;89.00
86136;DHT22;76795;51.360;4.546;2024-02-26T01:42:30;6.80;90.10
86136;DHT22;76795;51.360;4.546;2024-02-26T01:44:56;6.80;90.10
86136;DHT22;76795;51.360;4.546;2024-02-26T01:47:22;6.90;90.30
86136;DHT22;76795;51.360;4.546;2024-02-26T01:49:49;6.90;90.10
86136;DHT22;76795;51.360;4.546;2024-02-26T01:52:15;6.70;90.30
86136;DHT22;76795;51.360;4.546;2024-02-26T01:54:41;6.70;90.50
86136;DHT22;76795;51.360;4.546;2024-02-26T01:57:08;6.60;90.70
86136;DHT22;76795;51.360;4.546;2024-02-26T01:59:34;6.60;90.80
86136;DHT22;76795;51.360;4.546;2024-02-26T02:02:02;6.60;91.30
86136;DHT22;76795;51.360;4.546;2024-02-26T02:04:29;6.60;91.00
86136;DHT22;76795;51.360;4.546;2024-02-26T02:06:55;6.50;91.20
86136;DHT22;76795;51.360;4.546;2024-02-26T02:09:22;6.50;91.10
86136;DHT22;76795;51.360;4.546;2024-02-26T02:11:48;6.30;91.20
86136;DHT22;76795;51.360;4.546;2024-02-26T02:14:14;6.30;91.70
86136;DHT22;76795;51.360;4.546;2024-02-26T02:16:40;6.20;91.80
86136;DHT22;76795;51.360;4.546;2024-02-26T02:19:06;6.30;92.10
86136;DHT22;76795;51.360;4.546;2024-02-26T02:21:32;6.30;91.90
86136;DHT22;76795;51.360;4.546;2024-02-26T02:23:57;6.20;91.90
86136;DHT22;76795;51.360;4.546;2024-02-26T02:26:23;6.30;92.30
86136;DHT22;76795;51.360;4.546;2024-02-26T02:28:49;6.20;92.00
86136;DHT22;76795;51.360;4.546;2024-02-26T02:31:15;6.20;92.30
86136;DHT22;76795;51.360;4.546;2024-02-26T02:33:41;6.30;92.30
86136;DHT22;76795;51.360;4.546;2024-02-26T02:36:07;6.20;92.10
86136;DHT22;76795;51.360;4.546;2024-02-26T02:38:36;6.30;92.30
86136;DHT22;76795;51.360;4.546;2024-02-26T02:41:02;6.30;92.50
86136;DHT22;76795;51.360;4.546;2024-02-26T02:43:28;6.30;92.50
86136;DHT22;76795;51.360;4.546;2024-02-26T02:45:53;6.30;92.30
86136;DHT22;76795;51.360;4.546;2024-02-26T02:48:19;6.30;92.40
86136;DHT22;76795;51.360;4.546;2024-02-26T02:50:45;6.30;92.10
86136;DHT22;76795;51.360;4.546;2024-02-26T02:53:11;6.30;92.30
86136;DHT22;76795;51.360;4.546;2024-02-26T02:55:37;6.30;92.20
86136;DHT22;76795;51.360;4.546;2024-02-26T02:58:02;6.30;92.00
86136;DHT22;76795;51.360;4.546;2024-02-26T03:00:28;6.30;92.60
86136;DHT22;76795;51.360;4.546;2024-02-26T03:02:54;6.30;92.50
86136;DHT22;76795;51.360;4.546;2024-02-26T03:05:19;6.30;92.20
86136;DHT22;76795;51.360;4.546;2024-02-26T03:07:45;6.30;92.40
86136;DHT22;76795;51.360;4.546;2024-02-26T03:10:11;6.40;92.60
86136;DHT22;76795;51.360;4.546;2024-02-26T03:12:36;6.30;92.30
86136;DHT22;76795;51.360;4.546;2024-02-26T03:15:02;6.30;92.40
86136;DHT22;76795;51.360;4.546;2024-02-26T03:17:29;6.20;92.40
86136;DHT22;76795;51.360;4.546;2024-02-26T03:19:54;6.30;92.80
86136;DHT22;76795;51.360;4.546;2024-02-26T03:22:21;6.30;92.70
86136;DHT22;76795;51.360;4.546;2024-02-26T03:24:47;6.30;92.60
86136;DHT22;76795;51.360;4.546;2024-02-26T03:27:13;6.30;92.80
86136;DHT22;76795;51.360;4.546;2024-02-26T03:29:40;6.30;93.00
86136;DHT22;76795;51.360;4.546;2024-02-26T03:32:06;6.30;92.90
86136;DHT22;76795;51.360;4.546;2024-02-26T03:34:34;6.20;93.00
86136;DHT22;76795;51.360;4.546;2024-02-26T03:37:00;6.20;93.20
86136;DHT22;76795;51.360;4.546;2024-02-26T03:39:26;6.20;93.20
86136;DHT22;76795;51.360;4.546;2024-02-26T03:41:52;6.30;93.20
86136;DHT22;76795;51.360;4.546;2024-02-26T03:44:17;6.30;93.20
86136;DHT22;76795;51.360;4.546;2024-02-26T03:46:43;6.20;93.30
86136;DHT22;76795;51.360;4.546;2024-02-26T03:49:09;6.20;93.40
86136;DHT22;76795;51.360;4.546;2024-02-26T03:51:34;6.30;93.50
86136;DHT22;76795;51.360;4.546;2024-02-26T03:54:00;6.30;93.20
86136;DHT22;76795;51.360;4.546;2024-02-26T03:56:26;6.30;93.40
86136;DHT22;76795;51.360;4.546;2024-02-26T03:58:53;6.30;93.20
86136;DHT22;76795;51.360;4.546;2024-02-26T04:01:18;6.30;93.40
86136;DHT22;76795;51.360;4.546;2024-02-26T04:03:44;6.30;93.20
86136;DHT22;76795;51.360;4.546;2024-02-26T04:06:11;6.30;93.10
86136;DHT22;76795;51.360;4.546;2024-02-26T04:08:37;6.30;93.40
86136;DHT22;76795;51.360;4.546;2024-02-26T04:11:03;6.20;93.30
86136;DHT22;76795;51.360;4.546;2024-02-26T04:13:33;6.20;93.50
86136;DHT22;76795;51.360;4.546;2024-02-26T04:15:59;6.20;93.50
86136;DHT22;76795;51.360;4.546;2024-02-26T04:18:27;6.10;93.50
86136;DHT22;76795;51.360;4.546;2024-02-26T04:20:52;6.10;93.50
86136;DHT22;76795;51.360;4.546;2024-02-26T04:23:18;6.10;93.50
86136;DHT22;76795;51.360;4.546;2024-02-26T04:25:44;6.10;93.60
86136;DHT22;76795;51.360;4.546;2024-02-26T04:28:10;6.10;93.50
86136;DHT22;76795;51.360;4.546;2024-02-26T04:30:36;6.10;93.40
86136;DHT22;76795;51.360;4.546;2024-02-26T04:33:02;6.10;93.50
86136;DHT22;76795;51.360;4.546;2024-02-26T04:35:28;6.10;93.60
86136;DHT22;76795;51.360;4.546;2024-02-26T04:37:53;6.10;93.50
86136;DHT22;76795;51.360;4.546;2024-02-26T04:40:19;6.00;93.60
86136;DHT22;76795;51.360;4.546;2024-02-26T04:42:45;6.10;94.20
86136;DHT22;76795;51.360;4.546;2024-02-26T04:45:10;6.00;93.70
86136;DHT22;76795;51.360;4.546;2024-02-26T04:47:36;6.00;93.70
86136;DHT22;76795;51.360;4.546;2024-02-26T04:50:02;6.00;94.30
86136;DHT22;76795;51.360;4.546;2024-02-26T04:52:28;6.00;93.70
86136;DHT22;76795;51.360;4.546;2024-02-26T04:54:53;6.00;93.60
86136;DHT22;76795;51.360;4.546;2024-02-26T04:57:20;6.00;93.80
86136;DHT22;76795;51.360;4.546;2024-02-26T04:59:46;6.00;93.70
86136;DHT22;76795;51.360;4.546;2024-02-26T05:02:12;5.90;93.60
86136;DHT22;76795;51.360;4.546;2024-02-26T05:04:38;6.00;93.80
86136;DHT22;76795;51.360;4.546;2024-02-26T05:07:04;5.90;93.60
86136;DHT22;76795;51.360;4.546;2024-02-26T05:09:30;5.90;93.90
86136;DHT22;76795;51.360;4.546;2024-02-26T05:11:55;5.90;93.70
86136;DHT22;76795;51.360;4.546;2024-02-26T05:14:21;5.90;93.90
86136;DHT22;76795;51.360;4.546;2024-02-26T05:16:47;6.00;93.80
86136;DHT22;76795;51.360;4.546;2024-02-26T05:19:13;5.90;93.60
86136;DHT22;76795;51.360;4.546;2024-02-26T05:21:39;6.00;94.00
86136;DHT22;76795;51.360;4.546;2024-02-26T05:24:06;5.90;93.80
86136;DHT22;76795;51.360;4.546;2024-02-26T05:26:32;6.00;93.70
86136;DHT22;76795;51.360;4.546;2024-02-26T05:28:57;6.00;93.90
86136;DHT22;76795;51.360;4.546;2024-02-26T05:31:26;6.00;93.50
86136;DHT22;76795;51.360;4.546;2024-02-26T05:33:52;6.00;93.60
86136;DHT22;76795;51.360;4.546;2024-02-26T05:36:21;5.90;93.50
86136;DHT22;76795;51.360;4.546;2024-02-26T05:38:48;5.90;93.60
86136;DHT22;76795;51.360;4.546;2024-02-26T05:41:17;5.90;93.60
86136;DHT22;76795;51.360;4.546;2024-02-26T05:43:52;5.90;93.70
86136;DHT22;76795;51.360;4.546;2024-02-26T05:46:18;5.90;93.50
86136;DHT22;76795;51.360;4.546;2024-02-26T05:48:46;5.90;93.50
86136;DHT22;76795;51.360;4.546;2024-02-26T05:51:12;5.90;93.50
86136;DHT22;76795;51.360;4.546;2024-02-26T05:53:37;5.90;93.20
86136;DHT22;76795;51.360;4.546;2024-02-26T05:56:03;5.90;93.50
86136;DHT22;76795;51.360;4.546;2024-02-26T05:58:29;5.90;93.60
86136;DHT22;76795;51.360;4.546;2024-02-26T06:00:54;5.90;93.50
86136;DHT22;76795;51.360;4.546;2024-02-26T06:03:20;5.90;93.50
86136;DHT22;76795;51.360;4.546;2024-02-26T06:05:46;5.90;93.60
86136;DHT22;76795;51.360;4.546;2024-02-26T06:08:12;5.90;93.20
86136;DHT22;76795;51.360;4.546;2024-02-26T06:10:37;5.90;93.40
86136;DHT22;76795;51.360;4.546;2024-02-26T06:13:04;5.90;93.80
86136;DHT22;76795;51.360;4.546;2024-02-26T06:15:30;5.80;93.30
86136;DHT22;76795;51.360;4.546;2024-02-26T06:17:56;5.80;94.10
86136;DHT22;76795;51.360;4.546;2024-02-26T06:20:21;5.80;93.40
86136;DHT22;76795;51.360;4.546;2024-02-26T06:22:47;5.80;93.40
86136;DHT22;76795;51.360;4.546;2024-02-26T06:25:12;5.80;93.10
86136;DHT22;76795;51.360;4.546;2024-02-26T06:27:38;5.80;93.30
86136;DHT22;76795;51.360;4.546;2024-02-26T06:30:04;5.80;93.20
86136;DHT22;76795;51.360;4.546;2024-02-26T06:32:30;5.70;93.30
86136;DHT22;76795;51.360;4.546;2024-02-26T06:34:56;5.70;93.30
86136;DHT22;76795;51.360;4.546;2024-02-26T06:37:22;5.80;93.30
86136;DHT22;76795;51.360;4.546;2024-02-26T06:39:48;5.70;93.40
86136;DHT22;76795;51.360;4.546;2024-02-26T06:42:13;5.70;93.30
86136;DHT22;76795;51.360;4.546;2024-02-26T06:44:39;5.70;93.70
86136;DHT22;76795;51.360;4.546;2024-02-26T06:47:05;5.80;93.70
86136;DHT22;76795;51.360;4.546;2024-02-26T06:49:31;5.70;93.40
86136;DHT22;76795;51.360;4.546;2024-02-26T06:51:57;5.80;93.20
86136;DHT22;76795;51.360;4.546;2024-02-26T06:54:22;5.80;93.60
86136;DHT22;76795;51.360;4.546;2024-02-26T06:56:48;5.80;93.60
86136;DHT22;76795;51.360;4.546;2024-02-26T06:59:14;5.80;93.60
86136;DHT22;76795;51.360;4.546;2024-02-26T07:01:41;5.80;93.30
86136;DHT22;76795;51.360;4.546;2024-02-26T07:04:07;5.80;93.50
86136;DHT22;76795;51.360;4.546;2024-02-26T07:06:33;5.80;93.50
86136;DHT22;76795;51.360;4.546;2024-02-26T07:08:58;5.80;93.60
86136;DHT22;76795;51.360;4.546;2024-02-26T07:11:24;5.80;93.30
86136;DHT22;76795;51.360;4.546;2024-02-26T07:13:50;5.80;93.40
86136;DHT22;76795;51.360;4.546;2024-02-26T07:16:15;5.80;93.20
86136;DHT22;76795;51.360;4.546;2024-02-26T07:18:41;5.80;93.20
86136;DHT22;76795;51.360;4.546;2024-02-26T07:21:09;5.80;93.40
86136;DHT22;76795;51.360;4.546;2024-02-26T07:23:34;5.80;93.30
86136;DHT22;76795;51.360;4.546;2024-02-26T07:26:00;5.80;93.10
86136;DHT22;76795;51.360;4.546;2024-02-26T07:28:26;5.80;93.30
86136;DHT22;76795;51.360;4.546;2024-02-26T07:30:52;5.80;93.20
86136;DHT22;76795;51.360;4.546;2024-02-26T07:33:17;5.80;93.20
86136;DHT22;76795;51.360;4.546;2024-02-26T07:35:43;5.80;93.00
86136;DHT22;76795;51.360;4.546;2024-02-26T07:38:09;5.80;93.00
86136;DHT22;76795;51.360;4.546;2024-02-26T07:40:35;5.80;93.00
86136;DHT22;76795;51.360;4.546;2024-02-26T07:43:01;5.80;93.30
86136;DHT22;76795;51.360;4.546;2024-02-26T07:45:27;5.80;93.00
86136;DHT22;76795;51.360;4.546;2024-02-26T07:47:52;5.80;93.20
86136;DHT22;76795;51.360;4.546;2024-02-26T07:50:18;5.80;93.00
86136;DHT22;76795;51.360;4.546;2024-02-26T07:52:45;5.80;93.30
86136;DHT22;76795;51.360;4.546;2024-02-26T07:55:11;5.80;93.00
86136;DHT22;76795;51.360;4.546;2024-02-26T07:57:36;5.80;93.10
86136;DHT22;76795;51.360;4.546;2024-02-26T08:00:03;5.80;93.20
86136;DHT22;76795;51.360;4.546;2024-02-26T08:02:29;5.80;93.10
86136;DHT22;76795;51.360;4.546;2024-02-26T08:04:55;5.90;93.40
86136;DHT22;76795;51.360;4.546;2024-02-26T08:07:20;5.90;93.30
86136;DHT22;76795;51.360;4.546;2024-02-26T08:09:47;5.90;93.20
86136;DHT22;76795;51.360;4.546;2024-02-26T08:12:13;5.90;93.10
86136;DHT22;76795;51.360;4.546;2024-02-26T08:14:39;5.80;93.40
86136;DHT22;76795;51.360;4.546;2024-02-26T08:17:05;5.80;93.30
86136;DHT22;76795;51.360;4.546;2024-02-26T08:19:30;5.80;93.20
86136;DHT22;76795;51.360;4.546;2024-02-26T08:21:56;5.80;93.20
86136;DHT22;76795;51.360;4.546;2024-02-26T08:24:23;5.80;93.60
86136;DHT22;76795;51.360;4.546;2024-02-26T08:26:49;5.70;93.50
86136;DHT22;76795;51.360;4.546;2024-02-26T08:29:15;5.70;93.60
86136;DHT22;76795;51.360;4.546;2024-02-26T08:31:40;5.70;93.60
86136;DHT22;76795;51.360;4.546;2024-02-26T08:34:06;5.80;93.50
86136;DHT22;76795;51.360;4.546;2024-02-26T08:36:33;5.80;93.60
86136;DHT22;76795;51.360;4.546;2024-02-26T08:38:59;5.80;93.30
86136;DHT22;76795;51.360;4.546;2024-02-26T08:41:25;5.70;93.20
86136;DHT22;76795;51.360;4.546;2024-02-26T08:43:51;5.70;93.60
86136;DHT22;76795;51.360;4.546;2024-02-26T08:46:16;5.80;93.40
86136;DHT22;76795;51.360;4.546;2024-02-26T08:48:42;5.80;93.30
86136;DHT22;76795;51.360;4.546;2024-02-26T08:51:09;5.80;93.60
86136;DHT22;76795;51.360;4.546;2024-02-26T08:53:35;5.80;93.60
86136;DHT22;76795;51.360;4.546;2024-02-26T08:56:01;5.70;93.50
86136;DHT22;76795;51.360;4.546;2024-02-26T08:58:28;5.80;93.50
86136;DHT22;76795;51.360;4.546;2024-02-26T09:00:54;5.80;93.60
86136;DHT22;76795;51.360;4.546;2024-02-26T09:03:20;5.80;93.60
86136;DHT22;76795;51.360;4.546;2024-02-26T09:05:46;5.80;93.70
86136;DHT22;76795;51.360;4.546;2024-02-26T09:08:12;5.80;93.60
86136;DHT22;76795;51.360;4.546;2024-02-26T09:10:38;5.80;93.70
86136;DHT22;76795;51.360;4.546;2024-02-26T09:13:04;5.80;93.90
86136;DHT22;76795;51.360;4.546;2024-02-26T09:15:30;5.70;93.70
86136;DHT22;76795;51.360;4.546;2024-02-26T09:17:56;5.70;93.90
86136;DHT22;76795;51.360;4.546;2024-02-26T09:20:22;5.70;93.90
86136;DHT22;76795;51.360;4.546;2024-02-26T09:22:49;5.70;94.20
86136;DHT22;76795;51.360;4.546;2024-02-26T09:25:15;5.80;93.70
86136;DHT22;76795;51.360;4.546;2024-02-26T09:27:41;5.80;93.80
86136;DHT22;76795;51.360;4.546;2024-02-26T09:30:09;5.80;93.70
86136;DHT22;76795;51.360;4.546;2024-02-26T09:32:35;5.80;93.60
86136;DHT22;76795;51.360;4.546;2024-02-26T09:35:02;5.80;93.80
86136;DHT22;76795;51.360;4.546;2024-02-26T09:37:27;5.80;93.40
86136;DHT22;76795;51.360;4.546;2024-02-26T09:39:53;5.80;93.80
86136;DHT22;76795;51.360;4.546;2024-02-26T09:42:19;5.90;93.70
86136;DHT22;76795;51.360;4.546;2024-02-26T09:44:45;5.90;93.60
86136;DHT22;76795;51.360;4.546;2024-02-26T09:47:14;5.90;93.40
86136;DHT22;76795;51.360;4.546;2024-02-26T09:49:42;5.90;93.60
86136;DHT22;76795;51.360;4.546;2024-02-26T09:52:09;6.00;93.40
86136;DHT22;76795;51.360;4.546;2024-02-26T09:54:35;6.10;93.90
86136;DHT22;76795;51.360;4.546;2024-02-26T09:57:02;6.10;93.10
86136;DHT22;76795;51.360;4.546;2024-02-26T09:59:39;6.00;93.00
86136;DHT22;76795;51.360;4.546;2024-02-26T10:02:13;6.00;93.40
86136;DHT22;76795;51.360;4.546;2024-02-26T10:04:42;5.90;93.50
86136;DHT22;76795;51.360;4.546;2024-02-26T10:07:13;6.00;93.70
86136;DHT22;76795;51.360;4.546;2024-02-26T10:09:39;5.90;93.50
86136;DHT22;76795;51.360;4.546;2024-02-26T10:12:08;5.90;94.40
86136;DHT22;76795;51.360;4.546;2024-02-26T10:14:34;5.90;93.50
86136;DHT22;76795;51.360;4.546;2024-02-26T10:17:00;6.00;93.90
86136;DHT22;76795;51.360;4.546;2024-02-26T10:19:28;5.90;93.90
86136;DHT22;76795;51.360;4.546;2024-02-26T10:21:58;6.00;93.90
86136;DHT22;76795;51.360;4.546;2024-02-26T10:24:25;5.90;93.60
86136;DHT22;76795;51.360;4.546;2024-02-26T10:26:52;6.00;93.70
86136;DHT22;76795;51.360;4.546;2024-02-26T10:29:21;6.00;93.70
86136;DHT22;76795;51.360;4.546;2024-02-26T10:31:47;6.00;93.70
86136;DHT22;76795;51.360;4.546;2024-02-26T10:34:14;5.90;93.90
86136;DHT22;76795;51.360;4.546;2024-02-26T10:36:40;5.90;93.50
86136;DHT22;76795;51.360;4.546;2024-02-26T10:39:07;5.90;93.70
86136;DHT22;76795;51.360;4.546;2024-02-26T10:41:33;5.90;93.60
86136;DHT22;76795;51.360;4.546;2024-02-26T10:43:59;5.90;94.10
86136;DHT22;76795;51.360;4.546;2024-02-26T10:46:25;6.00;94.00
86136;DHT22;76795;51.360;4.546;2024-02-26T10:48:52;6.00;93.90
86136;DHT22;76795;51.360;4.546;2024-02-26T10:51:29;5.90;93.70
86136;DHT22;76795;51.360;4.546;2024-02-26T10:53:57;5.90;93.90
86136;DHT22;76795;51.360;4.546;2024-02-26T10:56:28;6.00;93.70
86136;DHT22;76795;51.360;4.546;2024-02-26T10:58:58;6.00;93.80
86136;DHT22;76795;51.360;4.546;2024-02-26T11:01:25;6.00;93.90
86136;DHT22;76795;51.360;4.546;2024-02-26T11:03:52;6.00;93.60
86136;DHT22;76795;51.360;4.546;2024-02-26T11:06:19;5.90;93.70
86136;DHT22;76795;51.360;4.546;2024-02-26T11:08:50;6.00;93.70
86136;DHT22;76795;51.360;4.546;2024-02-26T11:11:17;6.00;93.90
86136;DHT22;76795;51.360;4.546;2024-02-26T11:13:47;6.00;93.90
86136;DHT22;76795;51.360;4.546;2024-02-26T11:16:21;6.00;94.00
86136;DHT22;76795;51.360;4.546;2024-02-26T11:18:48;6.00;93.90
86136;DHT22;76795;51.360;4.546;2024-02-26T11:21:17;6.00;93.70
86136;DHT22;76795;51.360;4.546;2024-02-26T11:23:46;6.00;93.80
86136;DHT22;76795;51.360;4.546;2024-02-26T11:26:14;6.10;93.90
86136;DHT22;76795;51.360;4.546;2024-02-26T11:28:42;6.10;93.90
86136;DHT22;76795;51.360;4.546;2024-02-26T11:31:08;6.10;93.50
86136;DHT22;76795;51.360;4.546;2024-02-26T11:33:35;6.10;93.90
86136;DHT22;76795;51.360;4.546;2024-02-26T11:36:05;6.10;93.80
86136;DHT22;76795;51.360;4.546;2024-02-26T11:38:33;6.00;93.60
86136;DHT22;76795;51.360;4.546;2024-02-26T11:40:59;6.00;94.00
86136;DHT22;76795;51.360;4.546;2024-02-26T11:43:50;6.00;94.00
86136;DHT22;76795;51.360;4.546;2024-02-26T11:46:31;6.10;94.20
86136;DHT22;76795;51.360;4.546;2024-02-26T11:49:03;6.10;94.00
86136;DHT22;76795;51.360;4.546;2024-02-26T11:51:51;6.00;94.00
86136;DHT22;76795;51.360;4.546;2024-02-26T11:57:38;5.90;94.10
86136;DHT22;76795;51.360;4.546;2024-02-26T12:02:50;5.90;94.10
86136;DHT22;76795;51.360;4.546;2024-02-26T12:05:31;5.90;94.20
86136;DHT22;76795;51.360;4.546;2024-02-26T12:08:01;5.90;94.10
86136;DHT22;76795;51.360;4.546;2024-02-26T12:10:34;5.90;93.90
86136;DHT22;76795;51.360;4.546;2024-02-26T12:13:10;6.00;94.00
86136;DHT22;76795;51.360;4.546;2024-02-26T12:18:06;6.00;94.00
86136;DHT22;76795;51.360;4.546;2024-02-26T12:20:33;6.00;93.50
86136;DHT22;76795;51.360;4.546;2024-02-26T12:22:59;6.00;94.00
86136;DHT22;76795;51.360;4.546;2024-02-26T12:25:27;6.00;94.20
86136;DHT22;76795;51.360;4.546;2024-02-26T12:27:54;6.00;93.90
86136;DHT22;76795;51.360;4.546;2024-02-26T12:30:20;6.10;93.80
86136;DHT22;76795;51.360;4.546;2024-02-26T12:32:50;6.00;93.30
86136;DHT22;76795;51.360;4.546;2024-02-26T12:35:16;6.00;93.60
86136;DHT22;76795;51.360;4.546;2024-02-26T12:37:46;6.00;93.60
86136;DHT22;76795;51.360;4.546;2024-02-26T12:40:12;6.00;93.40
86136;DHT22;76795;51.360;4.546;2024-02-26T12:42:41;6.00;93.00
86136;DHT22;76795;51.360;4.546;2024-02-26T12:45:11;6.00;93.30
86136;DHT22;76795;51.360;4.546;2024-02-26T12:47:40;6.00;93.40
86136;DHT22;76795;51.360;4.546;2024-02-26T12:50:08;6.00;93.60
86136;DHT22;76795;51.360;4.546;2024-02-26T12:52:35;6.00;93.60
86136;DHT22;76795;51.360;4.546;2024-02-26T12:55:04;6.10;93.40
86136;DHT22;76795;51.360;4.546;2024-02-26T12:57:32;6.10;93.30
86136;DHT22;76795;51.360;4.546;2024-02-26T13:00:01;6.10;93.30
86136;DHT22;76795;51.360;4.546;2024-02-26T13:02:27;6.10;93.10
86136;DHT22;76795;51.360;4.546;2024-02-26T13:04:54;6.00;93.30
86136;DHT22;76795;51.360;4.546;2024-02-26T13:07:21;6.10;93.30
86136;DHT22;76795;51.360;4.546;2024-02-26T13:09:46;6.10;93.70
86136;DHT22;76795;51.360;4.546;2024-02-26T13:12:12;6.10;93.50
86136;DHT22;76795;51.360;4.546;2024-02-26T13:14:39;6.10;93.50
86136;DHT22;76795;51.360;4.546;2024-02-26T13:17:05;6.10;93.10
86136;DHT22;76795;51.360;4.546;2024-02-26T13:19:31;6.10;93.30
86136;DHT22;76795;51.360;4.546;2024-02-26T13:22:04;6.00;93.40
86136;DHT22;76795;51.360;4.546;2024-02-26T13:24:30;6.10;93.80
86136;DHT22;76795;51.360;4.546;2024-02-26T13:26:56;6.10;93.30
86136;DHT22;76795;51.360;4.546;2024-02-26T13:29:22;6.10;93.20
86136;DHT22;76795;51.360;4.546;2024-02-26T13:31:48;6.10;93.60
86136;DHT22;76795;51.360;4.546;2024-02-26T13:34:25;6.10;93.80
86136;DHT22;76795;51.360;4.546;2024-02-26T13:36:52;6.10;93.90
86136;DHT22;76795;51.360;4.546;2024-02-26T13:39:26;6.10;93.50
86136;DHT22;76795;51.360;4.546;2024-02-26T13:41:52;6.10;93.80
86136;DHT22;76795;51.360;4.546;2024-02-26T13:44:21;6.10;93.70
86136;DHT22;76795;51.360;4.546;2024-02-26T13:46:47;6.10;93.90
86136;DHT22;76795;51.360;4.546;2024-02-26T13:49:15;6.10;93.70
86136;DHT22;76795;51.360;4.546;2024-02-26T13:51:40;6.10;93.90
86136;DHT22;76795;51.360;4.546;2024-02-26T13:54:06;6.20;94.00
86136;DHT22;76795;51.360;4.546;2024-02-26T13:56:32;6.20;93.90
86136;DHT22;76795;51.360;4.546;2024-02-26T13:58:58;6.10;94.00
86136;DHT22;76795;51.360;4.546;2024-02-26T14:01:25;6.10;93.40
86136;DHT22;76795;51.360;4.546;2024-02-26T14:03:50;6.10;93.50
86136;DHT22;76795;51.360;4.546;2024-02-26T14:06:16;6.10;93.80
86136;DHT22;76795;51.360;4.546;2024-02-26T14:08:42;6.10;93.80
86136;DHT22;76795;51.360;4.546;2024-02-26T14:11:08;6.10;93.60
86136;DHT22;76795;51.360;4.546;2024-02-26T14:13:34;6.10;93.50
86136;DHT22;76795;51.360;4.546;2024-02-26T14:15:59;6.10;93.60
86136;DHT22;76795;51.360;4.546;2024-02-26T14:18:25;6.10;93.30
86136;DHT22;76795;51.360;4.546;2024-02-26T14:20:52;6.10;93.40
86136;DHT22;76795;51.360;4.546;2024-02-26T14:23:18;6.10;93.90
86136;DHT22;76795;51.360;4.546;2024-02-26T14:25:44;6.20;94.00
86136;DHT22;76795;51.360;4.546;2024-02-26T14:28:09;6.20;93.90
86136;DHT22;76795;51.360;4.546;2024-02-26T14:30:35;6.20;94.10
86136;DHT22;76795;51.360;4.546;2024-02-26T14:33:01;6.20;94.00
86136;DHT22;76795;51.360;4.546;2024-02-26T14:35:26;6.20;94.10
86136;DHT22;76795;51.360;4.546;2024-02-26T14:37:52;6.20;93.90
86136;DHT22;76795;51.360;4.546;2024-02-26T14:40:18;6.10;94.00
86136;DHT22;76795;51.360;4.546;2024-02-26T14:42:44;6.10;94.10
86136;DHT22;76795;51.360;4.546;2024-02-26T14:45:10;6.20;94.20
86136;DHT22;76795;51.360;4.546;2024-02-26T14:47:36;6.20;94.30
86136;DHT22;76795;51.360;4.546;2024-02-26T14:50:02;6.20;94.20
86136;DHT22;76795;51.360;4.546;2024-02-26T14:52:28;6.20;94.40
86136;DHT22;76795;51.360;4.546;2024-02-26T14:54:54;6.20;94.00
86136;DHT22;76795;51.360;4.546;2024-02-26T14:57:20;6.20;93.90
86136;DHT22;76795;51.360;4.546;2024-02-26T14:59:45;6.20;94.30
86136;DHT22;76795;51.360;4.546;2024-02-26T15:02:11;6.30;93.90
86136;DHT22;76795;51.360;4.546;2024-02-26T15:04:37;6.30;94.10
86136;DHT22;76795;51.360;4.546;2024-02-26T15:07:03;6.20;93.60
86136;DHT22;76795;51.360;4.546;2024-02-26T15:09:29;6.20;93.80
86136;DHT22;76795;51.360;4.546;2024-02-26T15:11:55;6.30;93.60
86136;DHT22;76795;51.360;4.546;2024-02-26T15:14:23;6.40;93.70
86136;DHT22;76795;51.360;4.546;2024-02-26T15:16:49;6.30;93.60
86136;DHT22;76795;51.360;4.546;2024-02-26T15:19:16;6.20;93.50
86136;DHT22;76795;51.360;4.546;2024-02-26T15:21:45;6.20;93.80
86136;DHT22;76795;51.360;4.546;2024-02-26T15:24:11;6.20;94.00
86136;DHT22;76795;51.360;4.546;2024-02-26T15:26:38;6.20;94.10
86136;DHT22;76795;51.360;4.546;2024-02-26T15:29:06;6.30;93.90
86136;DHT22;76795;51.360;4.546;2024-02-26T15:31:32;6.30;93.90
86136;DHT22;76795;51.360;4.546;2024-02-26T15:33:57;6.30;94.10
86136;DHT22;76795;51.360;4.546;2024-02-26T15:36:23;6.20;93.60
86136;DHT22;76795;51.360;4.546;2024-02-26T15:38:49;6.20;94.00
86136;DHT22;76795;51.360;4.546;2024-02-26T15:41:15;6.30;94.20
86136;DHT22;76795;51.360;4.546;2024-02-26T15:43:43;6.20;93.60
86136;DHT22;76795;51.360;4.546;2024-02-26T15:46:12;6.20;94.00
86136;DHT22;76795;51.360;4.546;2024-02-26T15:48:38;6.30;93.70